Terminal Aerodrome Forecast
Issued by NWS

Home | Current Version | Previous Version | Text Only | Print | Product List | Glossary On
Versions: 1 2 3 4 5 6 7 8 9 10 11 12 13 14 15 16 17 18 19 20 21 22 23 24 25 26 27 28 29 30 31 32 33 34 35 36 37 38 39 40 41
000
FTUS41 KALY 290500
TAFPSF
TAF
KPSF 290536Z 2906/3006 30010KT P6SM VCSH BKN007 OVC012
      TEMPO 2906/2909 SCT007 BKN012 OVC025
     FM290900 29006KT P6SM SCT012 BKN040
      TEMPO 2909/2912 BKN012 OVC040
     FM291300 28005KT P6SM SCT040
     FM291700 28007KT P6SM SCT050
     FM300100 00000KT P6SM FEW050=

USA.gov is the U.S. government's official web portal to all federal, state and local government web resources and services.